Aurora, NE

9:28 AM CST on November 24, 2014 (GMT -0600)
Aurora Municipal | Change Station
CLOSE
Current Station
Airport
Location: Aurora,
Elevation: 1804 ft
Nearby Weather Stations

Elev 1804 ft 40.89 °N, 97.99 °W | Updated 13 minutes ago

Scattered Clouds
Scattered Clouds
30 °F
Feels Like 15 °F
N
28
Wind Variable Wind from NW
Gusts 38 mph

Today
High -- | Low -- °F
--% Chance of Precip.
Yesterday
High -- | Low -- °F
Precip. -- in
7:29 AM 5:07 PM
Waxing Crescent, 5% visible
Pressure 29.77 in
Visibility 10.0 miles
Clouds Scattered Clouds 2700 ft
Windchill 15 °F
Dew Point 19 °F
Humidity 64%
Rainfall 0.00 in
Snow Depth Not available.
UV 1 out of 12
Pollen .10 out of 12
Air Quality Not available.
Flu Activity Not available.
METAR KAUH 241515Z AUTO 32024G33KT 10SM SCT027 M01/M07 A2977 RMK AO2 T10121072

More Conditions Fewer Conditions

Pressure 29.77 in
Visibility 10.0 miles
Clouds Scattered Clouds 2700 ft
Windchill 15 °F
Dew Point 19 °F
Humidity 64%
Rainfall 0.00 in
Snow Depth Not available.
UV 1 out of 12
Pollen .10 out of 12
Air Quality Not available.
Flu Activity Not available.
METAR KAUH 241515Z AUTO 32024G33KT 10SM SCT027 M01/M07 A2977 RMK AO2 T10121072

More Conditions Fewer Conditions

10-Day Weather Forecast

Almanac

Astronomy

Nov. 24, 2014 Rise Set
Actual Time
Civil Twilight
Nautical Twilight
Astronomical Twilight
Moon
Length of Visible Light
Length of Day
Tomorrow will be .
, % of the Moon is Illuminated

Today's Extremes

State Highs State Lows

Community

WunderPhotos

Upload Photos

1,773,359 photos uploaded!

WunderBlogs® & News

Nearby

Air Quality

  Air Quality AQ Index Pollutant
Not available.

Snow Depth

Station Depth Elevation

Earthquake Activity

City Distance Mag. Time & Date
Minimum magnitude displayed is 2.5.

Coastal Water Temperatures

Place Temperature

Nearby Weather Stations